sensor_id;sensor_type;location;lat;lon;timestamp;P1;durP1;ratioP1;P2;durP2;ratioP2
23596;SDS011;40226;50.874;4.394;2023-07-20T00:01:27;6.05;;;3.75;;
23596;SDS011;40226;50.874;4.394;2023-07-20T00:03:53;8.30;;;3.72;;
23596;SDS011;40226;50.874;4.394;2023-07-20T00:06:21;10.43;;;4.45;;
23596;SDS011;40226;50.874;4.394;2023-07-20T00:08:49;12.13;;;4.45;;
23596;SDS011;40226;50.874;4.394;2023-07-20T00:11:14;12.02;;;4.43;;
23596;SDS011;40226;50.874;4.394;2023-07-20T00:13:40;14.27;;;4.75;;
23596;SDS011;40226;50.874;4.394;2023-07-20T00:16:06;12.07;;;4.60;;
23596;SDS011;40226;50.874;4.394;2023-07-20T00:18:31;10.07;;;4.80;;
23596;SDS011;40226;50.874;4.394;2023-07-20T00:20:57;13.45;;;5.28;;
23596;SDS011;40226;50.874;4.394;2023-07-20T00:23:24;9.98;;;4.75;;
23596;SDS011;40226;50.874;4.394;2023-07-20T00:25:50;13.90;;;4.95;;
23596;SDS011;40226;50.874;4.394;2023-07-20T00:28:16;11.25;;;4.90;;
23596;SDS011;40226;50.874;4.394;2023-07-20T00:30:42;11.63;;;4.97;;
23596;SDS011;40226;50.874;4.394;2023-07-20T00:33:09;13.80;;;6.10;;
23596;SDS011;40226;50.874;4.394;2023-07-20T00:35:36;13.73;;;5.45;;
23596;SDS011;40226;50.874;4.394;2023-07-20T00:38:02;11.88;;;5.25;;
23596;SDS011;40226;50.874;4.394;2023-07-20T00:40:28;10.25;;;5.55;;
23596;SDS011;40226;50.874;4.394;2023-07-20T00:43:00;14.68;;;6.30;;
23596;SDS011;40226;50.874;4.394;2023-07-20T00:45:26;14.27;;;6.40;;
23596;SDS011;40226;50.874;4.394;2023-07-20T00:47:51;10.68;;;5.68;;
23596;SDS011;40226;50.874;4.394;2023-07-20T00:50:17;11.68;;;5.50;;
23596;SDS011;40226;50.874;4.394;2023-07-20T00:52:44;14.80;;;5.47;;
23596;SDS011;40226;50.874;4.394;2023-07-20T00:55:09;13.52;;;5.57;;
23596;SDS011;40226;50.874;4.394;2023-07-20T00:57:35;11.30;;;5.43;;
23596;SDS011;40226;50.874;4.394;2023-07-20T01:00:02;13.00;;;5.22;;
23596;SDS011;40226;50.874;4.394;2023-07-20T01:02:28;13.30;;;6.25;;
23596;SDS011;40226;50.874;4.394;2023-07-20T01:04:53;9.73;;;5.47;;
23596;SDS011;40226;50.874;4.394;2023-07-20T01:07:26;15.35;;;5.40;;
23596;SDS011;40226;50.874;4.394;2023-07-20T01:12:56;13.48;;;5.35;;
23596;SDS011;40226;50.874;4.394;2023-07-20T01:15:22;11.27;;;5.30;;
23596;SDS011;40226;50.874;4.394;2023-07-20T01:17:49;15.57;;;5.85;;
23596;SDS011;40226;50.874;4.394;2023-07-20T01:20:15;12.05;;;5.75;;
23596;SDS011;40226;50.874;4.394;2023-07-20T01:33:50;11.00;;;5.50;;
23596;SDS011;40226;50.874;4.394;2023-07-20T01:36:19;13.40;;;5.40;;
23596;SDS011;40226;50.874;4.394;2023-07-20T01:38:46;15.77;;;5.82;;
23596;SDS011;40226;50.874;4.394;2023-07-20T01:41:12;14.90;;;6.80;;
23596;SDS011;40226;50.874;4.394;2023-07-20T01:43:39;15.05;;;6.47;;
23596;SDS011;40226;50.874;4.394;2023-07-20T01:46:05;12.98;;;6.70;;
23596;SDS011;40226;50.874;4.394;2023-07-20T01:48:30;18.95;;;6.18;;
23596;SDS011;40226;50.874;4.394;2023-07-20T01:50:57;17.77;;;7.13;;
23596;SDS011;40226;50.874;4.394;2023-07-20T01:53:23;15.13;;;6.07;;
23596;SDS011;40226;50.874;4.394;2023-07-20T01:55:49;15.07;;;6.50;;
23596;SDS011;40226;50.874;4.394;2023-07-20T01:58:17;15.45;;;6.45;;
23596;SDS011;40226;50.874;4.394;2023-07-20T02:00:42;17.50;;;7.32;;
23596;SDS011;40226;50.874;4.394;2023-07-20T02:03:08;17.45;;;7.35;;
23596;SDS011;40226;50.874;4.394;2023-07-20T02:05:34;16.52;;;7.22;;
23596;SDS011;40226;50.874;4.394;2023-07-20T02:07:59;19.50;;;8.15;;
23596;SDS011;40226;50.874;4.394;2023-07-20T02:10:25;24.60;;;8.30;;
23596;SDS011;40226;50.874;4.394;2023-07-20T02:12:51;16.02;;;7.90;;
23596;SDS011;40226;50.874;4.394;2023-07-20T02:15:16;18.73;;;8.73;;
23596;SDS011;40226;50.874;4.394;2023-07-20T02:17:43;17.20;;;8.57;;
23596;SDS011;40226;50.874;4.394;2023-07-20T02:20:09;18.58;;;8.93;;
23596;SDS011;40226;50.874;4.394;2023-07-20T02:22:36;19.35;;;8.98;;
23596;SDS011;40226;50.874;4.394;2023-07-20T02:25:03;20.08;;;9.77;;
23596;SDS011;40226;50.874;4.394;2023-07-20T02:27:30;20.60;;;9.02;;
23596;SDS011;40226;50.874;4.394;2023-07-20T02:29:55;21.48;;;9.38;;
23596;SDS011;40226;50.874;4.394;2023-07-20T02:32:21;18.77;;;9.20;;
23596;SDS011;40226;50.874;4.394;2023-07-20T02:34:47;22.45;;;9.68;;
23596;SDS011;40226;50.874;4.394;2023-07-20T02:37:12;21.10;;;9.15;;
23596;SDS011;40226;50.874;4.394;2023-07-20T02:39:39;20.42;;;10.35;;
23596;SDS011;40226;50.874;4.394;2023-07-20T02:42:04;25.85;;;9.73;;
23596;SDS011;40226;50.874;4.394;2023-07-20T02:44:30;23.98;;;10.65;;
23596;SDS011;40226;50.874;4.394;2023-07-20T02:46:56;22.15;;;10.15;;
23596;SDS011;40226;50.874;4.394;2023-07-20T02:49:22;24.45;;;9.88;;
23596;SDS011;40226;50.874;4.394;2023-07-20T02:51:47;24.30;;;10.48;;
23596;SDS011;40226;50.874;4.394;2023-07-20T02:54:13;22.55;;;10.30;;
23596;SDS011;40226;50.874;4.394;2023-07-20T02:56:39;24.02;;;10.98;;
23596;SDS011;40226;50.874;4.394;2023-07-20T02:59:05;27.88;;;11.18;;
23596;SDS011;40226;50.874;4.394;2023-07-20T03:01:30;23.38;;;11.20;;
23596;SDS011;40226;50.874;4.394;2023-07-20T03:03:56;22.30;;;11.02;;
23596;SDS011;40226;50.874;4.394;2023-07-20T03:06:22;27.75;;;11.52;;
23596;SDS011;40226;50.874;4.394;2023-07-20T03:08:48;20.48;;;12.10;;
23596;SDS011;40226;50.874;4.394;2023-07-20T03:11:17;23.02;;;11.05;;
23596;SDS011;40226;50.874;4.394;2023-07-20T03:13:47;21.75;;;11.13;;
23596;SDS011;40226;50.874;4.394;2023-07-20T03:16:13;21.58;;;11.80;;
23596;SDS011;40226;50.874;4.394;2023-07-20T03:18:43;23.27;;;12.10;;
23596;SDS011;40226;50.874;4.394;2023-07-20T03:21:10;26.63;;;11.60;;
23596;SDS011;40226;50.874;4.394;2023-07-20T03:23:36;25.27;;;12.65;;
23596;SDS011;40226;50.874;4.394;2023-07-20T03:26:03;25.27;;;12.73;;
23596;SDS011;40226;50.874;4.394;2023-07-20T03:28:28;28.08;;;12.13;;
23596;SDS011;40226;50.874;4.394;2023-07-20T03:30:54;22.13;;;12.23;;
23596;SDS011;40226;50.874;4.394;2023-07-20T03:33:25;25.55;;;12.77;;
23596;SDS011;40226;50.874;4.394;2023-07-20T03:35:52;26.45;;;13.55;;
23596;SDS011;40226;50.874;4.394;2023-07-20T03:38:18;29.60;;;13.50;;
23596;SDS011;40226;50.874;4.394;2023-07-20T03:40:53;27.00;;;14.10;;
23596;SDS011;40226;50.874;4.394;2023-07-20T03:43:21;23.70;;;14.15;;
23596;SDS011;40226;50.874;4.394;2023-07-20T03:45:47;27.48;;;14.75;;
23596;SDS011;40226;50.874;4.394;2023-07-20T03:48:17;26.08;;;14.00;;
23596;SDS011;40226;50.874;4.394;2023-07-20T03:50:45;30.80;;;14.48;;
23596;SDS011;40226;50.874;4.394;2023-07-20T03:53:12;30.17;;;15.70;;
23596;SDS011;40226;50.874;4.394;2023-07-20T03:55:38;27.85;;;15.85;;
23596;SDS011;40226;50.874;4.394;2023-07-20T03:58:05;25.05;;;15.35;;
23596;SDS011;40226;50.874;4.394;2023-07-20T04:00:31;27.88;;;15.57;;
23596;SDS011;40226;50.874;4.394;2023-07-20T04:02:57;27.98;;;15.75;;
23596;SDS011;40226;50.874;4.394;2023-07-20T04:05:24;29.70;;;16.73;;
23596;SDS011;40226;50.874;4.394;2023-07-20T04:07:49;31.17;;;16.23;;
23596;SDS011;40226;50.874;4.394;2023-07-20T04:10:16;33.25;;;16.15;;
23596;SDS011;40226;50.874;4.394;2023-07-20T04:12:42;32.67;;;15.05;;
23596;SDS011;40226;50.874;4.394;2023-07-20T04:15:08;28.05;;;15.63;;
23596;SDS011;40226;50.874;4.394;2023-07-20T04:17:34;28.10;;;15.35;;
23596;SDS011;40226;50.874;4.394;2023-07-20T04:20:00;29.38;;;16.60;;
23596;SDS011;40226;50.874;4.394;2023-07-20T04:22:26;29.30;;;15.70;;
23596;SDS011;40226;50.874;4.394;2023-07-20T04:24:52;30.65;;;15.32;;
23596;SDS011;40226;50.874;4.394;2023-07-20T04:27:17;28.05;;;16.35;;
23596;SDS011;40226;50.874;4.394;2023-07-20T04:29:43;33.38;;;16.33;;
23596;SDS011;40226;50.874;4.394;2023-07-20T04:32:08;32.38;;;15.90;;
23596;SDS011;40226;50.874;4.394;2023-07-20T04:34:34;30.75;;;16.67;;
23596;SDS011;40226;50.874;4.394;2023-07-20T04:37:02;29.35;;;15.85;;
23596;SDS011;40226;50.874;4.394;2023-07-20T04:39:28;27.92;;;16.45;;
23596;SDS011;40226;50.874;4.394;2023-07-20T04:41:54;28.45;;;15.57;;
23596;SDS011;40226;50.874;4.394;2023-07-20T04:44:19;29.80;;;16.75;;
23596;SDS011;40226;50.874;4.394;2023-07-20T04:46:45;30.80;;;16.65;;
23596;SDS011;40226;50.874;4.394;2023-07-20T04:49:12;30.40;;;17.00;;
23596;SDS011;40226;50.874;4.394;2023-07-20T04:51:38;30.27;;;17.35;;
23596;SDS011;40226;50.874;4.394;2023-07-20T04:54:04;30.75;;;15.95;;
23596;SDS011;40226;50.874;4.394;2023-07-20T04:56:29;24.75;;;16.90;;
23596;SDS011;40226;50.874;4.394;2023-07-20T04:58:55;28.33;;;16.42;;
23596;SDS011;40226;50.874;4.394;2023-07-20T05:01:22;28.55;;;16.27;;
23596;SDS011;40226;50.874;4.394;2023-07-20T05:03:48;27.20;;;16.08;;
23596;SDS011;40226;50.874;4.394;2023-07-20T05:06:14;30.30;;;16.30;;
23596;SDS011;40226;50.874;4.394;2023-07-20T05:08:40;29.20;;;15.32;;
23596;SDS011;40226;50.874;4.394;2023-07-20T05:11:06;28.40;;;15.75;;
23596;SDS011;40226;50.874;4.394;2023-07-20T05:13:32;31.95;;;16.25;;
23596;SDS011;40226;50.874;4.394;2023-07-20T05:15:58;30.92;;;15.45;;
23596;SDS011;40226;50.874;4.394;2023-07-20T05:18:24;29.27;;;15.63;;
23596;SDS011;40226;50.874;4.394;2023-07-20T05:20:50;26.58;;;15.35;;
23596;SDS011;40226;50.874;4.394;2023-07-20T05:23:16;29.27;;;14.77;;
23596;SDS011;40226;50.874;4.394;2023-07-20T05:25:43;27.73;;;15.30;;
23596;SDS011;40226;50.874;4.394;2023-07-20T05:28:08;25.27;;;14.35;;
23596;SDS011;40226;50.874;4.394;2023-07-20T05:30:34;21.80;;;14.40;;
23596;SDS011;40226;50.874;4.394;2023-07-20T05:33:01;27.95;;;14.77;;
23596;SDS011;40226;50.874;4.394;2023-07-20T05:35:26;27.42;;;15.50;;
23596;SDS011;40226;50.874;4.394;2023-07-20T05:37:52;25.20;;;14.35;;
23596;SDS011;40226;50.874;4.394;2023-07-20T05:40:18;25.33;;;14.38;;
23596;SDS011;40226;50.874;4.394;2023-07-20T05:42:47;21.55;;;13.68;;
23596;SDS011;40226;50.874;4.394;2023-07-20T05:45:16;24.38;;;13.95;;
23596;SDS011;40226;50.874;4.394;2023-07-20T05:47:42;23.67;;;13.85;;
23596;SDS011;40226;50.874;4.394;2023-07-20T05:50:08;22.00;;;13.77;;
23596;SDS011;40226;50.874;4.394;2023-07-20T05:52:35;20.90;;;13.60;;
23596;SDS011;40226;50.874;4.394;2023-07-20T05:55:00;20.88;;;12.48;;
23596;SDS011;40226;50.874;4.394;2023-07-20T05:57:26;21.98;;;12.93;;
23596;SDS011;40226;50.874;4.394;2023-07-20T05:59:51;21.42;;;13.05;;
23596;SDS011;40226;50.874;4.394;2023-07-20T06:02:17;21.58;;;13.15;;
23596;SDS011;40226;50.874;4.394;2023-07-20T06:04:43;25.00;;;12.98;;
23596;SDS011;40226;50.874;4.394;2023-07-20T06:07:08;20.17;;;12.15;;
23596;SDS011;40226;50.874;4.394;2023-07-20T06:09:34;20.65;;;12.20;;
23596;SDS011;40226;50.874;4.394;2023-07-20T06:12:00;22.50;;;12.20;;
23596;SDS011;40226;50.874;4.394;2023-07-20T06:14:27;21.05;;;11.55;;
23596;SDS011;40226;50.874;4.394;2023-07-20T06:16:53;20.40;;;11.73;;
23596;SDS011;40226;50.874;4.394;2023-07-20T06:19:19;24.27;;;12.23;;
23596;SDS011;40226;50.874;4.394;2023-07-20T06:21:44;21.83;;;12.35;;
23596;SDS011;40226;50.874;4.394;2023-07-20T06:24:11;21.23;;;11.00;;
23596;SDS011;40226;50.874;4.394;2023-07-20T06:26:37;20.50;;;11.23;;
23596;SDS011;40226;50.874;4.394;2023-07-20T06:29:05;24.48;;;11.15;;
23596;SDS011;40226;50.874;4.394;2023-07-20T06:31:31;23.92;;;10.85;;
23596;SDS011;40226;50.874;4.394;2023-07-20T06:33:58;23.75;;;10.30;;
23596;SDS011;40226;50.874;4.394;2023-07-20T06:36:23;12.25;;;7.28;;
23596;SDS011;40226;50.874;4.394;2023-07-20T06:38:51;10.35;;;6.72;;
23596;SDS011;40226;50.874;4.394;2023-07-20T06:41:16;14.57;;;7.90;;
23596;SDS011;40226;50.874;4.394;2023-07-20T06:43:42;13.82;;;8.60;;
23596;SDS011;40226;50.874;4.394;2023-07-20T06:46:08;10.50;;;6.85;;
23596;SDS011;40226;50.874;4.394;2023-07-20T06:48:33;10.90;;;6.80;;
23596;SDS011;40226;50.874;4.394;2023-07-20T06:50:59;12.38;;;7.15;;
23596;SDS011;40226;50.874;4.394;2023-07-20T06:53:24;11.57;;;7.28;;
23596;SDS011;40226;50.874;4.394;2023-07-20T06:55:50;10.48;;;5.38;;
23596;SDS011;40226;50.874;4.394;2023-07-20T06:58:18;6.22;;;3.70;;
23596;SDS011;40226;50.874;4.394;2023-07-20T07:00:44;10.13;;;4.32;;
23596;SDS011;40226;50.874;4.394;2023-07-20T07:03:09;9.23;;;4.60;;
23596;SDS011;40226;50.874;4.394;2023-07-20T07:05:38;2.42;;;2.22;;
23596;SDS011;40226;50.874;4.394;2023-07-20T07:08:04;4.53;;;2.97;;
23596;SDS011;40226;50.874;4.394;2023-07-20T07:10:30;6.57;;;2.22;;
23596;SDS011;40226;50.874;4.394;2023-07-20T07:12:56;2.58;;;1.60;;
23596;SDS011;40226;50.874;4.394;2023-07-20T07:15:22;5.20;;;1.50;;
23596;SDS011;40226;50.874;4.394;2023-07-20T07:17:48;5.18;;;2.03;;
23596;SDS011;40226;50.874;4.394;2023-07-20T07:20:14;4.75;;;2.92;;
23596;SDS011;40226;50.874;4.394;2023-07-20T07:22:40;4.20;;;2.30;;
23596;SDS011;40226;50.874;4.394;2023-07-20T07:25:09;7.50;;;2.30;;
23596;SDS011;40226;50.874;4.394;2023-07-20T07:27:36;3.22;;;2.38;;
23596;SDS011;40226;50.874;4.394;2023-07-20T07:30:02;4.90;;;2.40;;
23596;SDS011;40226;50.874;4.394;2023-07-20T07:34:58;3.85;;;1.90;;
23596;SDS011;40226;50.874;4.394;2023-07-20T07:37:24;1.60;;;1.00;;
23596;SDS011;40226;50.874;4.394;2023-07-20T07:39:49;1.60;;;0.90;;
23596;SDS011;40226;50.874;4.394;2023-07-20T07:42:15;2.72;;;1.45;;
23596;SDS011;40226;50.874;4.394;2023-07-20T07:44:40;5.28;;;1.85;;
23596;SDS011;40226;50.874;4.394;2023-07-20T07:47:06;2.25;;;1.40;;
23596;SDS011;40226;50.874;4.394;2023-07-20T07:49:32;3.35;;;1.30;;
23596;SDS011;40226;50.874;4.394;2023-07-20T07:51:58;2.55;;;1.20;;
23596;SDS011;40226;50.874;4.394;2023-07-20T07:54:24;1.52;;;1.10;;
23596;SDS011;40226;50.874;4.394;2023-07-20T07:56:50;4.00;;;1.50;;
23596;SDS011;40226;50.874;4.394;2023-07-20T07:59:16;2.70;;;1.00;;
23596;SDS011;40226;50.874;4.394;2023-07-20T08:01:42;2.63;;;1.15;;
23596;SDS011;40226;50.874;4.394;2023-07-20T08:04:07;2.25;;;1.15;;
23596;SDS011;40226;50.874;4.394;2023-07-20T08:06:33;2.22;;;1.00;;
23596;SDS011;40226;50.874;4.394;2023-07-20T08:08:59;2.78;;;0.85;;
23596;SDS011;40226;50.874;4.394;2023-07-20T08:11:24;4.32;;;1.20;;
23596;SDS011;40226;50.874;4.394;2023-07-20T08:13:50;2.60;;;1.50;;
23596;SDS011;40226;50.874;4.394;2023-07-20T08:16:16;2.70;;;1.60;;
23596;SDS011;40226;50.874;4.394;2023-07-20T08:18:41;3.72;;;1.70;;
23596;SDS011;40226;50.874;4.394;2023-07-20T08:21:08;3.20;;;1.80;;
23596;SDS011;40226;50.874;4.394;2023-07-20T08:23:34;4.80;;;1.77;;
23596;SDS011;40226;50.874;4.394;2023-07-20T08:25:59;2.17;;;1.60;;
23596;SDS011;40226;50.874;4.394;2023-07-20T08:28:26;2.13;;;1.40;;
23596;SDS011;40226;50.874;4.394;2023-07-20T08:30:52;2.63;;;1.40;;
23596;SDS011;40226;50.874;4.394;2023-07-20T08:33:18;1.58;;;1.25;;
23596;SDS011;40226;50.874;4.394;2023-07-20T08:35:45;2.67;;;1.65;;
23596;SDS011;40226;50.874;4.394;2023-07-20T08:38:11;2.55;;;1.42;;
23596;SDS011;40226;50.874;4.394;2023-07-20T08:40:46;2.75;;;1.50;;
23596;SDS011;40226;50.874;4.394;2023-07-20T08:43:13;3.47;;;1.45;;
23596;SDS011;40226;50.874;4.394;2023-07-20T08:45:41;3.60;;;1.50;;
23596;SDS011;40226;50.874;4.394;2023-07-20T08:48:10;1.85;;;1.25;;
23596;SDS011;40226;50.874;4.394;2023-07-20T08:50:37;5.55;;;2.00;;
23596;SDS011;40226;50.874;4.394;2023-07-20T08:53:03;3.95;;;1.42;;
23596;SDS011;40226;50.874;4.394;2023-07-20T08:55:29;2.22;;;1.45;;
23596;SDS011;40226;50.874;4.394;2023-07-20T08:57:57;2.80;;;1.20;;
23596;SDS011;40226;50.874;4.394;2023-07-20T09:00:24;4.05;;;1.58;;
23596;SDS011;40226;50.874;4.394;2023-07-20T09:02:51;2.30;;;1.40;;
23596;SDS011;40226;50.874;4.394;2023-07-20T09:05:18;2.17;;;1.20;;
23596;SDS011;40226;50.874;4.394;2023-07-20T09:07:44;3.45;;;1.30;;
23596;SDS011;40226;50.874;4.394;2023-07-20T09:10:10;2.28;;;1.48;;
23596;SDS011;40226;50.874;4.394;2023-07-20T09:12:38;1.88;;;1.30;;
23596;SDS011;40226;50.874;4.394;2023-07-20T09:15:08;2.53;;;1.40;;
23596;SDS011;40226;50.874;4.394;2023-07-20T09:17:35;3.15;;;1.25;;
23596;SDS011;40226;50.874;4.394;2023-07-20T09:20:02;3.03;;;1.60;;
23596;SDS011;40226;50.874;4.394;2023-07-20T09:22:36;4.28;;;1.38;;
23596;SDS011;40226;50.874;4.394;2023-07-20T09:25:14;2.53;;;1.17;;
23596;SDS011;40226;50.874;4.394;2023-07-20T09:27:41;4.88;;;1.70;;
23596;SDS011;40226;50.874;4.394;2023-07-20T09:30:09;5.00;;;2.00;;
23596;SDS011;40226;50.874;4.394;2023-07-20T09:32:41;3.78;;;1.63;;
23596;SDS011;40226;50.874;4.394;2023-07-20T09:35:12;3.38;;;1.63;;
23596;SDS011;40226;50.874;4.394;2023-07-20T09:40:22;5.75;;;2.00;;
23596;SDS011;40226;50.874;4.394;2023-07-20T09:42:49;2.92;;;1.77;;
23596;SDS011;40226;50.874;4.394;2023-07-20T09:45:17;2.40;;;2.00;;
23596;SDS011;40226;50.874;4.394;2023-07-20T09:47:43;4.70;;;1.55;;
23596;SDS011;40226;50.874;4.394;2023-07-20T09:50:09;11.82;;;2.05;;
23596;SDS011;40226;50.874;4.394;2023-07-20T09:52:38;4.03;;;1.73;;
23596;SDS011;40226;50.874;4.394;2023-07-20T09:55:06;5.00;;;1.60;;
23596;SDS011;40226;50.874;4.394;2023-07-20T09:57:35;2.47;;;1.80;;
23596;SDS011;40226;50.874;4.394;2023-07-20T10:00:02;2.78;;;1.90;;
23596;SDS011;40226;50.874;4.394;2023-07-20T10:02:37;4.65;;;1.75;;
23596;SDS011;40226;50.874;4.394;2023-07-20T10:05:07;5.22;;;1.77;;
23596;SDS011;40226;50.874;4.394;2023-07-20T10:07:35;2.60;;;1.60;;
23596;SDS011;40226;50.874;4.394;2023-07-20T10:10:05;2.88;;;1.52;;
23596;SDS011;40226;50.874;4.394;2023-07-20T10:12:35;4.18;;;1.70;;
23596;SDS011;40226;50.874;4.394;2023-07-20T10:17:46;2.70;;;1.83;;
23596;SDS011;40226;50.874;4.394;2023-07-20T10:20:24;2.67;;;1.63;;
23596;SDS011;40226;50.874;4.394;2023-07-20T10:22:52;2.58;;;1.67;;
23596;SDS011;40226;50.874;4.394;2023-07-20T10:25:18;3.20;;;1.48;;
23596;SDS011;40226;50.874;4.394;2023-07-20T10:27:47;2.15;;;1.58;;
23596;SDS011;40226;50.874;4.394;2023-07-20T10:30:13;2.83;;;1.77;;
23596;SDS011;40226;50.874;4.394;2023-07-20T10:32:41;2.20;;;1.48;;
23596;SDS011;40226;50.874;4.394;2023-07-20T10:35:14;4.93;;;1.60;;
23596;SDS011;40226;50.874;4.394;2023-07-20T10:37:53;1.90;;;1.45;;
23596;SDS011;40226;50.874;4.394;2023-07-20T10:40:37;3.13;;;1.80;;
23596;SDS011;40226;50.874;4.394;2023-07-20T10:43:08;3.20;;;1.75;;
23596;SDS011;40226;50.874;4.394;2023-07-20T10:48:22;3.38;;;1.92;;
23596;SDS011;40226;50.874;4.394;2023-07-20T10:53:41;3.65;;;1.85;;
23596;SDS011;40226;50.874;4.394;2023-07-20T10:56:08;3.05;;;1.90;;
23596;SDS011;40226;50.874;4.394;2023-07-20T10:58:36;3.03;;;1.70;;
23596;SDS011;40226;50.874;4.394;2023-07-20T11:01:03;3.83;;;1.63;;
23596;SDS011;40226;50.874;4.394;2023-07-20T11:03:33;2.30;;;1.70;;
23596;SDS011;40226;50.874;4.394;2023-07-20T11:06:46;4.28;;;2.22;;
23596;SDS011;40226;50.874;4.394;2023-07-20T11:09:09;3.60;;;2.17;;
23596;SDS011;40226;50.874;4.394;2023-07-20T11:11:36;3.33;;;2.10;;
23596;SDS011;40226;50.874;4.394;2023-07-20T11:16:50;2.83;;;1.95;;
23596;SDS011;40226;50.874;4.394;2023-07-20T11:19:21;6.40;;;2.20;;
23596;SDS011;40226;50.874;4.394;2023-07-20T11:24:23;3.53;;;1.95;;
23596;SDS011;40226;50.874;4.394;2023-07-20T11:26:52;3.58;;;1.85;;
23596;SDS011;40226;50.874;4.394;2023-07-20T11:29:22;3.60;;;1.90;;
23596;SDS011;40226;50.874;4.394;2023-07-20T11:31:49;3.63;;;2.22;;
23596;SDS011;40226;50.874;4.394;2023-07-20T11:34:16;5.47;;;1.88;;
23596;SDS011;40226;50.874;4.394;2023-07-20T11:36:44;3.67;;;2.25;;
23596;SDS011;40226;50.874;4.394;2023-07-20T11:39:11;2.03;;;1.75;;
23596;SDS011;40226;50.874;4.394;2023-07-20T11:41:38;3.65;;;1.60;;
23596;SDS011;40226;50.874;4.394;2023-07-20T11:44:09;2.15;;;1.77;;
23596;SDS011;40226;50.874;4.394;2023-07-20T11:46:38;2.75;;;1.75;;
23596;SDS011;40226;50.874;4.394;2023-07-20T11:49:05;4.45;;;2.08;;
23596;SDS011;40226;50.874;4.394;2023-07-20T11:51:31;3.22;;;1.90;;
23596;SDS011;40226;50.874;4.394;2023-07-20T11:53:58;4.05;;;1.70;;
23596;SDS011;40226;50.874;4.394;2023-07-20T11:56:25;3.25;;;2.30;;
23596;SDS011;40226;50.874;4.394;2023-07-20T11:58:54;2.75;;;1.80;;
23596;SDS011;40226;50.874;4.394;2023-07-20T12:01:20;2.67;;;1.80;;
23596;SDS011;40226;50.874;4.394;2023-07-20T12:03:47;3.72;;;2.28;;
23596;SDS011;40226;50.874;4.394;2023-07-20T12:06:14;4.00;;;2.05;;
23596;SDS011;40226;50.874;4.394;2023-07-20T12:08:40;4.22;;;2.22;;
23596;SDS011;40226;50.874;4.394;2023-07-20T12:11:07;3.35;;;2.20;;
23596;SDS011;40226;50.874;4.394;2023-07-20T12:13:41;4.40;;;2.42;;
23596;SDS011;40226;50.874;4.394;2023-07-20T12:16:12;3.22;;;2.80;;
23596;SDS011;40226;50.874;4.394;2023-07-20T12:18:42;4.13;;;2.70;;
23596;SDS011;40226;50.874;4.394;2023-07-20T12:21:08;2.88;;;2.25;;
23596;SDS011;40226;50.874;4.394;2023-07-20T12:23:35;3.58;;;2.22;;
23596;SDS011;40226;50.874;4.394;2023-07-20T12:26:08;2.78;;;2.10;;
23596;SDS011;40226;50.874;4.394;2023-07-20T12:28:40;3.85;;;2.30;;
23596;SDS011;40226;50.874;4.394;2023-07-20T12:31:09;6.68;;;3.20;;
23596;SDS011;40226;50.874;4.394;2023-07-20T12:33:36;5.85;;;2.35;;
23596;SDS011;40226;50.874;4.394;2023-07-20T12:36:03;4.38;;;2.40;;
23596;SDS011;40226;50.874;4.394;2023-07-20T12:38:29;3.63;;;2.70;;
23596;SDS011;40226;50.874;4.394;2023-07-20T12:40:56;5.95;;;2.60;;
23596;SDS011;40226;50.874;4.394;2023-07-20T12:43:22;6.70;;;2.90;;
23596;SDS011;40226;50.874;4.394;2023-07-20T12:45:47;4.30;;;2.45;;
23596;SDS011;40226;50.874;4.394;2023-07-20T12:48:13;2.90;;;2.60;;
23596;SDS011;40226;50.874;4.394;2023-07-20T12:50:39;3.75;;;2.85;;
23596;SDS011;40226;50.874;4.394;2023-07-20T12:53:05;4.13;;;2.75;;
23596;SDS011;40226;50.874;4.394;2023-07-20T12:55:30;5.20;;;2.95;;
23596;SDS011;40226;50.874;4.394;2023-07-20T12:57:58;3.55;;;2.70;;
23596;SDS011;40226;50.874;4.394;2023-07-20T13:00:23;4.18;;;2.80;;
23596;SDS011;40226;50.874;4.394;2023-07-20T13:02:49;9.10;;;3.47;;
23596;SDS011;40226;50.874;4.394;2023-07-20T13:05:16;2.78;;;2.58;;
23596;SDS011;40226;50.874;4.394;2023-07-20T13:07:42;4.55;;;2.47;;
23596;SDS011;40226;50.874;4.394;2023-07-20T13:10:08;4.10;;;2.72;;
23596;SDS011;40226;50.874;4.394;2023-07-20T13:12:34;5.43;;;2.40;;
23596;SDS011;40226;50.874;4.394;2023-07-20T13:15:02;13.52;;;2.97;;
23596;SDS011;40226;50.874;4.394;2023-07-20T13:17:30;6.85;;;2.28;;
23596;SDS011;40226;50.874;4.394;2023-07-20T13:19:56;5.75;;;2.10;;
23596;SDS011;40226;50.874;4.394;2023-07-20T13:22:22;5.07;;;2.13;;
23596;SDS011;40226;50.874;4.394;2023-07-20T13:24:48;5.88;;;2.85;;
23596;SDS011;40226;50.874;4.394;2023-07-20T13:27:15;5.93;;;2.83;;
23596;SDS011;40226;50.874;4.394;2023-07-20T13:29:41;5.97;;;2.63;;
23596;SDS011;40226;50.874;4.394;2023-07-20T13:32:07;13.98;;;3.20;;
23596;SDS011;40226;50.874;4.394;2023-07-20T13:34:34;5.38;;;2.53;;
23596;SDS011;40226;50.874;4.394;2023-07-20T13:36:59;6.35;;;2.78;;
23596;SDS011;40226;50.874;4.394;2023-07-20T13:39:26;5.97;;;3.08;;
23596;SDS011;40226;50.874;4.394;2023-07-20T13:41:54;6.75;;;2.70;;
23596;SDS011;40226;50.874;4.394;2023-07-20T13:44:20;11.15;;;2.97;;
23596;SDS011;40226;50.874;4.394;2023-07-20T13:46:46;6.63;;;2.90;;
23596;SDS011;40226;50.874;4.394;2023-07-20T13:49:15;11.18;;;3.15;;
23596;SDS011;40226;50.874;4.394;2023-07-20T13:51:41;13.63;;;4.00;;
23596;SDS011;40226;50.874;4.394;2023-07-20T13:54:07;8.90;;;3.63;;
23596;SDS011;40226;50.874;4.394;2023-07-20T13:56:33;15.68;;;3.85;;
23596;SDS011;40226;50.874;4.394;2023-07-20T13:58:59;9.20;;;3.60;;
23596;SDS011;40226;50.874;4.394;2023-07-20T14:01:24;4.95;;;2.75;;
23596;SDS011;40226;50.874;4.394;2023-07-20T14:03:50;6.38;;;2.80;;
23596;SDS011;40226;50.874;4.394;2023-07-20T14:06:16;5.50;;;2.80;;
23596;SDS011;40226;50.874;4.394;2023-07-20T14:08:42;5.07;;;2.50;;
23596;SDS011;40226;50.874;4.394;2023-07-20T14:11:11;3.78;;;2.53;;
23596;SDS011;40226;50.874;4.394;2023-07-20T14:13:37;4.65;;;3.10;;
23596;SDS011;40226;50.874;4.394;2023-07-20T14:16:03;3.92;;;2.70;;
23596;SDS011;40226;50.874;4.394;2023-07-20T14:18:29;4.28;;;2.85;;
23596;SDS011;40226;50.874;4.394;2023-07-20T14:20:54;6.63;;;2.75;;
23596;SDS011;40226;50.874;4.394;2023-07-20T14:23:20;4.63;;;2.70;;
23596;SDS011;40226;50.874;4.394;2023-07-20T14:25:45;5.43;;;2.80;;
23596;SDS011;40226;50.874;4.394;2023-07-20T14:28:11;3.63;;;2.78;;
23596;SDS011;40226;50.874;4.394;2023-07-20T14:30:37;4.18;;;2.63;;
23596;SDS011;40226;50.874;4.394;2023-07-20T14:33:03;4.30;;;2.80;;
23596;SDS011;40226;50.874;4.394;2023-07-20T14:35:29;2.50;;;1.90;;
23596;SDS011;40226;50.874;4.394;2023-07-20T14:37:54;3.00;;;2.05;;
23596;SDS011;40226;50.874;4.394;2023-07-20T14:40:20;3.38;;;1.80;;
23596;SDS011;40226;50.874;4.394;2023-07-20T14:42:46;3.75;;;1.70;;
23596;SDS011;40226;50.874;4.394;2023-07-20T14:45:11;3.17;;;1.90;;
23596;SDS011;40226;50.874;4.394;2023-07-20T14:47:37;2.28;;;1.50;;
23596;SDS011;40226;50.874;4.394;2023-07-20T14:50:03;2.50;;;1.63;;
23596;SDS011;40226;50.874;4.394;2023-07-20T14:52:29;2.90;;;1.65;;
23596;SDS011;40226;50.874;4.394;2023-07-20T14:54:55;2.58;;;1.60;;
23596;SDS011;40226;50.874;4.394;2023-07-20T14:57:21;3.67;;;1.90;;
23596;SDS011;40226;50.874;4.394;2023-07-20T14:59:48;2.92;;;2.17;;
23596;SDS011;40226;50.874;4.394;2023-07-20T15:02:14;3.50;;;2.10;;
23596;SDS011;40226;50.874;4.394;2023-07-20T15:04:47;2.90;;;2.53;;
23596;SDS011;40226;50.874;4.394;2023-07-20T15:07:15;2.55;;;1.75;;
23596;SDS011;40226;50.874;4.394;2023-07-20T15:09:41;3.88;;;2.00;;